PATA

Details ICAO PATA
Name RALPH M CALHOUN MEM
Region USA (Alaska)
Timezone America/Anchorage (UTC-8.0)
Plans Departing 12
Arriving 9
Stats Elevation 227 ft / 69 m (AMSL)
Location 65.174400° -152.109000°
Runways 1
Magnetic Variation 15.401° E
Sunrise 2019-05-25 12:07:08 UTC / 2019-05-25 04:07:08 Local
Sunset 2019-05-26 08:06:31 UTC / 2019-05-26 00:06:31 Local
Advertisement - Login to hide

Runways

ID Width Length Bearing (true/mag) Surface Threshold Overrun Markings Lighting
07 150 ft / 46 m 4,372 ft / 1,333 m 89.30° / 73.90° GRAVEL 0 ft / 0 m 420 ft / 128 m VISUAL EDGE THRESHOLD
25 150 ft / 46 m 4,372 ft / 1,333 m 269.32° / 253.92° GRAVEL 0 ft / 0 m 200 ft / 61 m VISUAL EDGE THRESHOLD

Map

Weather


0- 5 10 15 20 25 30 35+ Temperature / °C

Clouds and Precipitation
Forecast for 2019-05-25 18:00 UTC. Updated 4 hours ago

Ground ~20,000 ft ~40,000 ft Winds

METAR

PATA 251852Z 15004KT 10SM FEW085 16/10 A2998 RMK AO2 SLP152 CB DSNT E MOV W T01560100

TAF

PATA 251745Z 2518/2618 09005KT P6SM SCT080

Frequencies

Recorded 135.10 MHz ASOS
Unicom 122.90 MHz CTAF
Warning: Do not use this data for real-world aviation or navigation. No guarantee of current accuracy is given.